createdAt,value
2019-03-25T00:01:34.636Z,18.67
2019-03-25T00:04:02.836Z,16.93
2019-03-25T00:06:30.832Z,16.73
2019-03-25T00:09:05.317Z,15.48
2019-03-25T00:11:28.599Z,13.53
2019-03-25T00:13:56.675Z,24.05
2019-03-25T00:16:24.647Z,16.82
2019-03-25T00:18:52.615Z,16.87
2019-03-25T00:21:20.694Z,15.00
2019-03-25T00:23:48.784Z,15.23
2019-03-25T00:26:16.772Z,16.02
2019-03-25T00:28:44.752Z,14.80
2019-03-25T00:31:12.752Z,17.32
2019-03-25T00:33:40.742Z,17.77
2019-03-25T00:36:08.725Z,21.77
2019-03-25T00:38:36.712Z,26.07
2019-03-25T00:41:04.835Z,23.32
2019-03-25T00:43:32.816Z,24.23
2019-03-25T00:46:00.784Z,28.50
2019-03-25T00:48:28.776Z,21.93
2019-03-25T00:50:56.769Z,20.65
2019-03-25T00:53:24.833Z,24.92
2019-03-25T00:55:52.829Z,24.43
2019-03-25T00:58:20.801Z,19.52
2019-03-25T01:00:48.885Z,19.27
2019-03-25T01:03:16.909Z,23.30
2019-03-25T01:05:44.885Z,20.00
2019-03-25T01:08:12.950Z,19.25
2019-03-25T01:10:40.977Z,22.48
2019-03-25T01:13:08.947Z,26.80
2019-03-25T01:15:37.024Z,22.75
2019-03-25T01:18:16.133Z,21.02
2019-03-25T01:20:34.996Z,21.62
2019-03-25T01:23:02.961Z,15.00
2019-03-25T01:25:30.948Z,19.15
2019-03-25T01:27:58.919Z,16.67
2019-03-25T01:30:26.976Z,15.50
2019-03-25T01:32:54.979Z,21.12
2019-03-25T01:35:22.955Z,17.90
2019-03-25T01:37:50.940Z,11.73
2019-03-25T01:40:19.089Z,20.15
2019-03-25T01:42:47.084Z,18.82
2019-03-25T01:45:15.080Z,19.55
2019-03-25T01:47:43.146Z,18.80
2019-03-25T01:50:11.309Z,19.12
2019-03-25T01:52:39.296Z,15.32
2019-03-25T01:55:13.511Z,17.60
2019-03-25T01:57:37.294Z,19.27
2019-03-25T02:00:06.718Z,17.55
2019-03-25T02:02:34.820Z,17.67
2019-03-25T02:05:02.884Z,21.65
2019-03-25T02:07:30.875Z,12.88
2019-03-25T02:09:58.985Z,19.30
2019-03-25T02:12:27.065Z,16.67
2019-03-25T02:14:54.924Z,16.05
2019-03-25T02:17:22.937Z,19.52
2019-03-25T02:19:50.923Z,19.27
2019-03-25T02:22:19.429Z,17.05
2019-03-25T02:24:47.588Z,15.85
2019-03-25T02:27:15.441Z,19.87
2019-03-25T02:29:43.520Z,20.17
2019-03-25T02:32:11.613Z,19.90
2019-03-25T02:34:39.594Z,21.68
2019-03-25T02:37:07.581Z,17.62
2019-03-25T02:39:35.576Z,17.98
2019-03-25T02:42:03.657Z,19.90
2019-03-25T02:44:31.730Z,17.82
2019-03-25T02:46:59.830Z,19.85
2019-03-25T02:49:27.802Z,21.35
2019-03-25T02:51:55.795Z,26.25
2019-03-25T02:54:23.806Z,23.20
2019-03-25T02:56:51.778Z,19.67
2019-03-25T02:59:19.898Z,24.77
2019-03-25T03:01:47.971Z,25.25
2019-03-25T03:04:15.959Z,23.92
2019-03-25T03:06:43.949Z,25.35
2019-03-25T03:09:12.045Z,27.37
2019-03-25T03:11:40.022Z,25.30
2019-03-25T03:14:08.125Z,20.82
2019-03-25T03:16:36.192Z,18.60
2019-03-25T03:19:04.292Z,21.77
2019-03-25T03:21:32.270Z,20.48
2019-03-25T03:24:00.230Z,24.45
2019-03-25T03:26:28.198Z,21.77
2019-03-25T03:28:56.219Z,24.12
2019-03-25T03:31:24.181Z,16.60
2019-03-25T03:33:52.265Z,21.90
2019-03-25T03:36:20.312Z,15.80
2019-03-25T03:38:48.498Z,19.62
2019-03-25T03:41:16.590Z,18.25
2019-03-25T03:43:44.668Z,11.90
2019-03-25T03:46:12.714Z,14.43
2019-03-25T03:48:40.797Z,14.10
2019-03-25T03:51:08.683Z,16.90
2019-03-25T03:53:36.658Z,14.35
2019-03-25T03:56:12.951Z,20.62
2019-03-25T03:58:34.623Z,15.60
2019-03-25T04:01:02.712Z,25.20
2019-03-25T04:03:30.776Z,19.12
2019-03-25T04:05:58.883Z,15.38
2019-03-25T04:08:26.848Z,16.62
2019-03-25T04:10:54.819Z,24.10
2019-03-25T04:13:22.816Z,17.32
2019-03-25T04:15:50.801Z,8.15
2019-03-25T04:18:18.769Z,11.08
2019-03-25T04:20:46.756Z,16.90
2019-03-25T04:23:14.725Z,19.00
2019-03-25T04:25:42.819Z,14.43
2019-03-25T04:28:10.692Z,9.63
2019-03-25T04:30:38.658Z,20.20
2019-03-25T04:33:06.646Z,15.23
2019-03-25T04:35:34.620Z,15.05
2019-03-25T04:38:02.614Z,15.15
2019-03-25T04:40:30.741Z,13.75
2019-03-25T04:42:59.017Z,8.50
2019-03-25T04:45:26.988Z,14.33
2019-03-25T04:47:54.964Z,13.78
2019-03-25T04:50:23.036Z,17.57
2019-03-25T04:52:51.030Z,12.50
2019-03-25T04:55:19.616Z,17.48
2019-03-25T04:57:47.692Z,13.90
2019-03-25T05:00:21.583Z,10.53
2019-03-25T05:02:49.600Z,12.47
2019-03-25T05:05:17.632Z,14.23
2019-03-25T05:07:45.641Z,14.00
2019-03-25T05:10:13.768Z,20.30
2019-03-25T05:12:41.893Z,19.45
2019-03-25T05:15:09.966Z,14.63
2019-03-25T05:17:37.964Z,20.27
2019-03-25T05:20:06.045Z,16.52
2019-03-25T05:22:34.013Z,17.75
2019-03-25T05:25:01.997Z,19.52
2019-03-25T05:27:30.107Z,13.50
2019-03-25T05:29:58.100Z,15.20
2019-03-25T05:32:26.092Z,11.93
2019-03-25T05:34:54.202Z,21.97
2019-03-25T05:37:22.288Z,18.17
2019-03-25T05:39:50.320Z,15.00
2019-03-25T05:42:18.374Z,18.75
2019-03-25T05:44:46.361Z,19.77
2019-03-25T05:47:14.441Z,14.15
2019-03-25T05:49:42.565Z,23.98
2019-03-25T05:52:10.526Z,18.10
2019-03-25T05:54:38.507Z,15.55
2019-03-25T05:57:06.502Z,26.75
2019-03-25T05:59:34.485Z,12.47
2019-03-25T06:02:02.632Z,17.12
2019-03-25T06:04:30.621Z,21.37
2019-03-25T06:06:58.704Z,12.95
2019-03-25T06:09:26.709Z,22.02
2019-03-25T06:11:54.673Z,18.73
2019-03-25T06:14:22.785Z,23.62
2019-03-25T06:16:50.783Z,17.87
2019-03-25T06:19:18.808Z,18.45
2019-03-25T06:21:46.793Z,18.07
2019-03-25T06:24:14.924Z,21.48
2019-03-25T06:26:42.933Z,30.32
2019-03-25T06:29:10.916Z,24.00
2019-03-25T06:31:38.884Z,20.55
2019-03-25T06:34:06.976Z,17.20
2019-03-25T06:36:34.949Z,22.35
2019-03-25T06:39:04.345Z,14.55
2019-03-25T06:41:32.320Z,14.70
2019-03-25T06:44:00.410Z,20.70
2019-03-25T06:46:28.388Z,21.55
2019-03-25T06:48:56.480Z,22.00
2019-03-25T06:51:24.428Z,19.23
2019-03-25T06:53:52.376Z,16.37
2019-03-25T06:56:20.343Z,16.87
2019-03-25T06:58:48.322Z,21.52
2019-03-25T07:01:16.283Z,15.95
2019-03-25T07:03:44.354Z,27.00
2019-03-25T07:06:12.455Z,20.70
2019-03-25T07:08:40.278Z,24.60
2019-03-25T07:11:08.462Z,19.52
2019-03-25T07:13:36.460Z,19.98
2019-03-25T07:16:04.431Z,20.30
2019-03-25T07:18:32.400Z,20.12
2019-03-25T07:21:00.425Z,21.17
2019-03-25T07:23:28.503Z,22.25
2019-03-25T07:25:56.581Z,26.05
2019-03-25T07:28:24.699Z,23.12
2019-03-25T07:30:52.657Z,27.90
2019-03-25T07:33:20.745Z,23.40
2019-03-25T07:35:48.640Z,23.73
2019-03-25T07:38:16.638Z,20.82
2019-03-25T07:40:44.602Z,21.70
2019-03-25T07:43:12.716Z,24.47
2019-03-25T07:45:40.702Z,24.23
2019-03-25T07:48:08.677Z,27.27
2019-03-25T07:50:36.661Z,18.20
2019-03-25T07:53:04.809Z,21.97
2019-03-25T07:55:32.888Z,22.73
2019-03-25T07:58:00.885Z,26.97
2019-03-25T08:00:28.864Z,28.98
2019-03-25T08:02:56.809Z,22.10
2019-03-25T08:05:24.802Z,16.27
2019-03-25T08:07:52.846Z,22.58
2019-03-25T08:10:31.226Z,25.15
2019-03-25T08:12:59.265Z,28.07
2019-03-25T08:15:27.327Z,24.63
2019-03-25T08:17:55.403Z,21.95
2019-03-25T08:20:23.382Z,28.00
2019-03-25T08:22:51.371Z,24.57
2019-03-25T08:25:19.364Z,19.32
2019-03-25T08:27:59.123Z,26.65
2019-03-25T08:30:17.744Z,19.70
2019-03-25T08:32:45.768Z,20.80
2019-03-25T08:35:13.737Z,22.27
2019-03-25T08:37:41.828Z,22.60
2019-03-25T08:40:09.933Z,18.67
2019-03-25T08:42:37.897Z,26.02
2019-03-25T08:45:06.536Z,26.65
2019-03-25T08:47:34.533Z,13.88
2019-03-25T08:50:02.524Z,13.55
2019-03-25T08:52:30.484Z,20.97
2019-03-25T08:54:58.507Z,20.45
2019-03-25T08:57:26.583Z,19.27
2019-03-25T08:59:56.506Z,16.25
2019-03-25T09:02:24.510Z,19.45
2019-03-25T09:04:52.562Z,12.98
2019-03-25T09:07:20.534Z,9.95
2019-03-25T09:09:48.540Z,9.63
2019-03-25T09:12:16.684Z,12.93
2019-03-25T09:14:44.800Z,9.70
2019-03-25T09:17:12.784Z,15.18
2019-03-25T09:19:40.769Z,14.45
2019-03-25T09:22:09.077Z,11.65
2019-03-25T09:24:37.060Z,13.62
2019-03-25T09:27:05.033Z,18.50
2019-03-25T09:29:33.132Z,15.70
2019-03-25T09:32:01.906Z,18.85
2019-03-25T09:34:29.884Z,18.92
2019-03-25T09:36:58.289Z,23.05
2019-03-25T09:39:26.275Z,20.95
2019-03-25T09:41:54.511Z,17.57
2019-03-25T09:44:23.214Z,29.37
2019-03-25T09:46:51.297Z,22.30
2019-03-25T09:49:19.297Z,20.77
2019-03-25T09:51:47.285Z,21.48
2019-03-25T09:54:15.241Z,30.25
2019-03-25T09:56:43.217Z,22.87
2019-03-25T09:59:11.215Z,29.32
2019-03-25T10:01:39.186Z,23.20
2019-03-25T10:04:07.355Z,23.05
2019-03-25T10:06:35.472Z,26.23
2019-03-25T10:09:08.181Z,21.73
2019-03-25T10:11:36.142Z,22.67
2019-03-25T10:14:04.248Z,24.10
2019-03-25T10:16:32.217Z,30.08
2019-03-25T10:19:00.188Z,29.87
2019-03-25T10:21:28.190Z,24.90
2019-03-25T10:23:56.261Z,22.22
2019-03-25T10:26:24.241Z,21.90
2019-03-25T10:28:52.241Z,21.77
2019-03-25T10:31:20.364Z,28.77
2019-03-25T10:33:48.428Z,26.62
2019-03-25T10:36:16.422Z,32.35
2019-03-25T10:38:44.391Z,27.35
2019-03-25T10:41:12.476Z,26.02
2019-03-25T10:43:40.519Z,19.10
2019-03-25T10:46:08.501Z,21.33
2019-03-25T10:48:36.493Z,19.23
2019-03-25T10:51:04.588Z,17.52
2019-03-25T10:53:32.556Z,14.35
2019-03-25T10:56:00.568Z,22.13
2019-03-25T10:58:28.525Z,21.48
2019-03-25T11:00:56.611Z,20.60
2019-03-25T11:03:24.619Z,12.82
2019-03-25T11:05:52.630Z,17.37
2019-03-25T11:08:20.703Z,28.42
2019-03-25T11:10:48.740Z,16.00
2019-03-25T11:13:16.823Z,22.02
2019-03-25T11:15:44.813Z,19.65
2019-03-25T11:18:12.908Z,20.77
2019-03-25T11:20:40.879Z,20.45
2019-03-25T11:23:08.869Z,14.80
2019-03-25T11:25:36.888Z,15.65
2019-03-25T11:28:22.493Z,17.27
2019-03-25T11:31:00.169Z,24.27
2019-03-25T11:33:28.340Z,26.07
2019-03-25T11:35:56.427Z,26.00
2019-03-25T11:38:24.649Z,28.07
2019-03-25T11:40:52.676Z,30.05
2019-03-25T11:43:20.714Z,24.32
2019-03-25T11:45:48.868Z,17.52
2019-03-25T11:48:17.124Z,16.10
2019-03-25T11:50:45.813Z,19.52
2019-03-25T11:53:13.800Z,21.57
2019-03-25T11:55:41.868Z,15.38
2019-03-25T11:58:09.951Z,16.10
2019-03-25T12:00:37.932Z,20.80
2019-03-25T12:03:05.945Z,23.15
2019-03-25T12:05:33.922Z,15.03
2019-03-25T12:08:01.916Z,12.63
2019-03-25T12:10:29.906Z,14.15
2019-03-25T12:12:57.878Z,12.63
2019-03-25T12:15:25.841Z,14.38
2019-03-25T12:17:53.939Z,17.52
2019-03-25T12:20:21.904Z,16.73
2019-03-25T12:22:49.917Z,17.37
2019-03-25T12:25:17.925Z,10.72
2019-03-25T12:27:45.892Z,17.07
2019-03-25T12:30:13.964Z,18.98
2019-03-25T12:32:41.866Z,13.50
2019-03-25T12:35:09.856Z,19.37
2019-03-25T12:37:37.831Z,14.63
2019-03-25T12:40:07.884Z,13.40
2019-03-25T12:42:35.669Z,18.23
2019-03-25T12:45:03.694Z,17.70
2019-03-25T12:47:31.705Z,16.62
2019-03-25T12:49:59.761Z,15.32
2019-03-25T12:52:27.740Z,14.93
2019-03-25T12:54:55.939Z,12.13
2019-03-25T12:57:24.012Z,18.15
2019-03-25T12:59:52.033Z,16.17
2019-03-25T13:02:19.999Z,13.72
2019-03-25T13:04:48.036Z,10.20
2019-03-25T13:07:16.032Z,13.68
2019-03-25T13:09:44.009Z,18.90
2019-03-25T13:12:11.987Z,19.00
2019-03-25T13:14:39.992Z,16.30
2019-03-25T13:17:07.955Z,22.62
2019-03-25T13:19:36.036Z,21.45
2019-03-25T13:22:04.116Z,26.20
2019-03-25T13:24:32.083Z,15.63
2019-03-25T13:27:00.133Z,20.10
2019-03-25T13:29:28.084Z,21.68
2019-03-25T13:31:56.147Z,20.77
2019-03-25T13:34:24.141Z,19.35
2019-03-25T13:36:52.112Z,14.95
2019-03-25T13:39:20.223Z,15.63
2019-03-25T13:41:48.196Z,17.27
2019-03-25T13:44:16.173Z,13.03
2019-03-25T13:46:44.073Z,20.10
2019-03-25T13:49:12.136Z,21.90
2019-03-25T13:51:40.107Z,21.60
2019-03-25T13:54:08.188Z,19.20
2019-03-25T13:56:36.249Z,15.65
2019-03-25T13:59:04.336Z,22.13
2019-03-25T14:01:32.373Z,24.18
2019-03-25T14:04:00.296Z,14.10
2019-03-25T14:06:28.296Z,21.05
2019-03-25T14:08:56.287Z,10.75
2019-03-25T14:11:24.271Z,15.20
2019-03-25T14:13:52.256Z,10.15
2019-03-25T14:16:20.297Z,17.82
2019-03-25T14:18:48.292Z,17.23
2019-03-25T14:21:16.400Z,17.92
2019-03-25T14:23:44.396Z,11.97
2019-03-25T14:26:12.364Z,24.43
2019-03-25T14:28:40.352Z,28.40
2019-03-25T14:31:08.345Z,13.25
2019-03-25T14:33:36.362Z,16.02
2019-03-25T14:36:04.338Z,14.75
2019-03-25T14:38:32.333Z,19.65
2019-03-25T14:41:00.305Z,22.58
2019-03-25T14:43:28.387Z,15.68
2019-03-25T14:45:56.400Z,13.38
2019-03-25T14:48:24.376Z,20.80
2019-03-25T14:50:52.360Z,19.92
2019-03-25T14:53:20.373Z,15.83
2019-03-25T14:55:48.428Z,20.32
2019-03-25T14:58:16.566Z,14.28
2019-03-25T15:00:44.504Z,21.00
2019-03-25T15:03:12.528Z,13.55
2019-03-25T15:05:40.546Z,21.82
2019-03-25T15:08:08.553Z,18.62
2019-03-25T15:10:36.624Z,19.75
2019-03-25T15:13:04.722Z,17.23
2019-03-25T15:15:32.811Z,16.62
2019-03-25T15:18:00.870Z,18.52
2019-03-25T15:20:28.857Z,22.20
2019-03-25T15:22:56.839Z,24.45
2019-03-25T15:25:24.998Z,13.43
2019-03-25T15:27:52.980Z,19.05
2019-03-25T15:30:20.950Z,18.42
2019-03-25T15:32:48.956Z,18.42
2019-03-25T15:35:16.936Z,14.75
2019-03-25T15:37:45.024Z,24.52
2019-03-25T15:40:13.362Z,16.30
2019-03-25T15:42:41.222Z,22.60
2019-03-25T15:45:09.447Z,13.03
2019-03-25T15:47:37.671Z,16.90
2019-03-25T15:50:06.668Z,20.57
2019-03-25T15:52:34.657Z,22.98
2019-03-25T15:55:02.636Z,24.37
2019-03-25T15:57:30.836Z,17.12
2019-03-25T15:59:59.071Z,25.02
2019-03-25T16:02:27.040Z,16.05
2019-03-25T16:04:55.129Z,18.75
2019-03-25T16:07:23.113Z,17.73
2019-03-25T16:09:51.180Z,14.35
2019-03-25T16:12:19.236Z,17.27
2019-03-25T16:14:47.475Z,18.77
2019-03-25T16:17:15.455Z,18.92
2019-03-25T16:19:43.449Z,21.93
2019-03-25T16:22:11.540Z,12.35
2019-03-25T16:24:39.624Z,13.53
2019-03-25T16:27:07.597Z,22.17
2019-03-25T16:29:35.573Z,18.45
2019-03-25T16:32:03.564Z,17.52
2019-03-25T16:34:31.547Z,16.57
2019-03-25T16:36:59.549Z,19.98
2019-03-25T16:39:27.796Z,21.80
2019-03-25T16:41:55.796Z,26.95
2019-03-25T16:44:23.946Z,17.75
2019-03-25T16:46:51.916Z,23.42
2019-03-25T16:49:19.950Z,22.35
2019-03-25T16:51:47.946Z,17.10
2019-03-25T16:54:15.738Z,20.50
2019-03-25T16:56:43.728Z,17.57
2019-03-25T16:59:11.711Z,22.22
2019-03-25T17:01:39.660Z,24.50
2019-03-25T17:04:07.607Z,17.12
2019-03-25T17:06:35.591Z,18.48
2019-03-25T17:09:04.980Z,22.87
2019-03-25T17:11:32.851Z,19.80
2019-03-25T17:14:00.815Z,21.77
2019-03-25T17:16:28.761Z,20.50
2019-03-25T17:18:56.627Z,25.75
2019-03-25T17:21:24.617Z,25.88
2019-03-25T17:23:52.715Z,23.62
2019-03-25T17:26:20.764Z,22.20
2019-03-25T17:28:48.744Z,27.25
2019-03-25T17:31:20.998Z,23.83
2019-03-25T17:33:46.249Z,27.82
2019-03-25T17:36:14.076Z,27.52
2019-03-25T17:38:42.017Z,32.98
2019-03-25T17:41:09.973Z,24.60
2019-03-25T17:43:37.947Z,28.70
2019-03-25T17:46:05.957Z,26.02
2019-03-25T17:48:34.132Z,25.43
2019-03-25T17:51:02.285Z,30.30
2019-03-25T17:53:30.288Z,20.65
2019-03-25T17:55:58.355Z,24.75
2019-03-25T17:58:26.361Z,28.02
2019-03-25T18:01:16.255Z,29.67
2019-03-25T18:03:44.404Z,28.38
2019-03-25T18:06:12.404Z,26.50
2019-03-25T18:08:40.384Z,27.85
2019-03-25T18:11:08.421Z,21.77
2019-03-25T18:13:36.455Z,27.17
2019-03-25T18:16:04.472Z,27.93
2019-03-25T18:18:32.643Z,30.55
2019-03-25T18:21:00.630Z,28.25
2019-03-25T18:23:28.616Z,27.73
2019-03-25T18:25:56.632Z,29.57
2019-03-25T18:28:24.624Z,34.67
2019-03-25T18:30:52.741Z,38.95
2019-03-25T18:33:20.998Z,29.27
2019-03-25T18:35:49.045Z,22.42
2019-03-25T18:38:17.015Z,33.38
2019-03-25T18:40:45.007Z,21.87
2019-03-25T18:43:12.957Z,31.33
2019-03-25T18:45:41.135Z,24.35
2019-03-25T18:48:09.132Z,32.48
2019-03-25T18:50:37.233Z,23.15
2019-03-25T18:53:05.350Z,25.88
2019-03-25T18:55:33.548Z,29.90
2019-03-25T18:58:01.573Z,21.42
2019-03-25T19:00:30.872Z,22.52
2019-03-25T19:02:58.853Z,35.83
2019-03-25T19:05:26.908Z,25.65
2019-03-25T19:07:55.198Z,25.90
2019-03-25T19:10:26.731Z,28.80
2019-03-25T19:12:54.864Z,27.05
2019-03-25T19:15:22.825Z,38.40
2019-03-25T19:17:50.801Z,38.60
2019-03-25T19:20:18.948Z,29.42
2019-03-25T19:22:46.943Z,24.20
2019-03-25T19:25:14.991Z,27.02
2019-03-25T19:27:42.971Z,29.23
2019-03-25T19:30:12.976Z,33.20
2019-03-25T19:32:40.899Z,32.30
2019-03-25T19:35:09.157Z,38.05
2019-03-25T19:37:37.136Z,26.30
2019-03-25T19:40:05.771Z,29.10
2019-03-25T19:42:33.738Z,28.75
2019-03-25T19:45:01.753Z,22.27
2019-03-25T19:47:29.678Z,31.52
2019-03-25T19:49:57.659Z,27.73
2019-03-25T19:52:25.763Z,27.48
2019-03-25T19:54:53.711Z,21.20
2019-03-25T19:57:21.699Z,27.58
2019-03-25T19:59:49.783Z,31.33
2019-03-25T20:02:19.347Z,30.35
2019-03-25T20:04:47.802Z,27.37
2019-03-25T20:07:15.792Z,23.10
2019-03-25T20:09:43.762Z,21.37
2019-03-25T20:12:11.908Z,35.70
2019-03-25T20:14:39.861Z,27.10
2019-03-25T20:17:07.841Z,35.50
2019-03-25T20:19:35.861Z,33.92
2019-03-25T20:22:03.986Z,35.50
2019-03-25T20:24:32.002Z,36.68
2019-03-25T20:27:00.288Z,27.75
2019-03-25T20:29:28.532Z,29.05
2019-03-25T20:31:56.488Z,32.63
2019-03-25T20:34:24.419Z,29.55
2019-03-25T20:36:52.547Z,31.57
2019-03-25T20:39:20.543Z,33.92
2019-03-25T20:41:48.680Z,39.65
2019-03-25T20:44:16.689Z,29.32
2019-03-25T20:46:44.799Z,35.35
2019-03-25T20:49:12.716Z,31.85
2019-03-25T20:51:40.677Z,32.78
2019-03-25T20:54:08.675Z,24.85
2019-03-25T20:56:36.616Z,28.20
2019-03-25T20:59:04.632Z,28.67
2019-03-25T21:01:32.656Z,39.83
2019-03-25T21:04:00.623Z,34.80
2019-03-25T21:06:28.667Z,29.37
2019-03-25T21:08:56.845Z,31.60
2019-03-25T21:11:24.814Z,29.02
2019-03-25T21:13:52.797Z,24.80
2019-03-25T21:16:20.813Z,32.73
2019-03-25T21:18:48.839Z,36.75
2019-03-25T21:21:16.808Z,32.60
2019-03-25T21:23:46.078Z,36.83
2019-03-25T21:26:14.155Z,26.33
2019-03-25T21:28:42.145Z,31.97
2019-03-25T21:31:10.194Z,39.13
2019-03-25T21:33:38.401Z,29.12
2019-03-25T21:36:06.499Z,33.73
2019-03-25T21:38:34.614Z,33.08
2019-03-25T21:41:02.929Z,31.80
2019-03-25T21:43:30.986Z,28.20
2019-03-25T21:45:59.837Z,28.02
2019-03-25T21:48:27.894Z,23.57
2019-03-25T21:50:55.928Z,32.93
2019-03-25T21:53:24.064Z,21.70
2019-03-25T21:55:52.093Z,30.05
2019-03-25T21:58:20.070Z,30.80
2019-03-25T22:00:48.337Z,31.85
2019-03-25T22:03:16.421Z,35.10
2019-03-25T22:05:44.481Z,32.45
2019-03-25T22:08:12.565Z,24.55
2019-03-25T22:10:42.984Z,24.80
2019-03-25T22:13:10.370Z,29.98
2019-03-25T22:15:38.259Z,35.23
2019-03-25T22:18:06.386Z,31.82
2019-03-25T22:20:34.357Z,31.25
2019-03-25T22:23:02.324Z,36.38
2019-03-25T22:25:30.191Z,31.85
2019-03-25T22:27:58.263Z,26.00
2019-03-25T22:30:26.370Z,33.88
2019-03-25T22:32:54.349Z,22.55
2019-03-25T22:35:22.428Z,28.77
2019-03-25T22:37:50.397Z,34.58
2019-03-25T22:40:18.529Z,37.53
2019-03-25T22:42:46.512Z,28.47
2019-03-25T22:45:18.523Z,30.40
2019-03-25T22:47:46.507Z,23.05
2019-03-25T22:50:31.636Z,23.65
2019-03-25T22:52:59.817Z,36.93
2019-03-25T22:55:27.877Z,22.98
2019-03-25T22:57:55.891Z,19.50
2019-03-25T23:00:26.127Z,32.38
2019-03-25T23:02:54.132Z,29.52
2019-03-25T23:05:22.121Z,27.40
2019-03-25T23:07:50.184Z,31.00
2019-03-25T23:10:18.317Z,26.93
2019-03-25T23:12:46.310Z,28.47
2019-03-25T23:15:14.264Z,27.35
2019-03-25T23:17:42.239Z,28.85
2019-03-25T23:20:10.214Z,28.23
2019-03-25T23:22:38.191Z,36.75
2019-03-25T23:25:06.196Z,20.60
2019-03-25T23:27:34.273Z,26.15
2019-03-25T23:30:02.345Z,28.95
2019-03-25T23:32:30.329Z,23.12
2019-03-25T23:34:58.296Z,28.32
2019-03-25T23:37:26.269Z,32.63
2019-03-25T23:39:54.254Z,24.23
2019-03-25T23:42:22.225Z,22.75
2019-03-25T23:44:50.278Z,25.60
2019-03-25T23:47:18.276Z,31.95
2019-03-25T23:49:46.265Z,26.75
2019-03-25T23:52:14.866Z,24.75
2019-03-25T23:54:42.929Z,22.10
2019-03-25T23:57:11.012Z,21.80
2019-03-25T23:59:39.108Z,27.52
